createdAt,value
2023-03-31T00:00:54.275Z,7.55
2023-03-31T00:03:22.463Z,7.93
2023-03-31T00:05:55.501Z,11.07
2023-03-31T00:08:23.198Z,9.70
2023-03-31T00:10:50.868Z,8.85
2023-03-31T00:13:18.356Z,8.77
2023-03-31T00:15:46.171Z,7.93
2023-03-31T00:18:13.557Z,9.65
2023-03-31T00:20:43.043Z,6.53
2023-03-31T00:23:11.238Z,6.60
2023-03-31T00:25:41.968Z,6.97
2023-03-31T00:28:09.352Z,6.72
2023-03-31T00:30:37.050Z,6.55
2023-03-31T00:33:04.754Z,8.45
2023-03-31T00:35:32.246Z,8.13
2023-03-31T00:38:00.040Z,6.70
2023-03-31T00:40:27.502Z,6.12
2023-03-31T00:42:55.005Z,8.18
2023-03-31T00:45:24.632Z,7.97
2023-03-31T00:47:55.661Z,7.57
2023-03-31T00:50:29.113Z,5.62
2023-03-31T00:52:59.657Z,8.93
2023-03-31T00:55:46.295Z,8.40
2023-03-31T00:58:15.253Z,6.35
2023-03-31T01:00:43.118Z,7.28
2023-03-31T01:03:11.137Z,6.53
2023-03-31T01:05:51.006Z,8.63
2023-03-31T01:08:20.007Z,6.35
2023-03-31T01:10:49.838Z,7.37
2023-03-31T01:13:18.454Z,8.27
2023-03-31T01:15:46.252Z,10.13
2023-03-31T01:18:14.722Z,8.50
2023-03-31T01:21:03.806Z,8.68
2023-03-31T01:23:56.083Z,7.22
2023-03-31T01:26:44.637Z,11.38
2023-03-31T01:29:33.740Z,9.43
2023-03-31T01:32:38.817Z,6.57
2023-03-31T01:35:34.396Z,9.80
2023-03-31T01:38:23.208Z,9.55
2023-03-31T01:40:59.099Z,8.13
2023-03-31T01:43:32.360Z,11.25
2023-03-31T01:46:06.956Z,6.50
2023-03-31T01:48:45.670Z,6.28
2023-03-31T01:51:16.166Z,6.55
2023-03-31T01:53:55.257Z,8.45
2023-03-31T01:56:30.761Z,7.55
2023-03-31T01:59:02.628Z,5.28
2023-03-31T02:01:40.760Z,6.50
2023-03-31T02:04:14.715Z,7.82
2023-03-31T02:09:15.978Z,9.23
2023-03-31T02:11:44.812Z,6.47
2023-03-31T02:14:18.737Z,7.60
2023-03-31T02:16:48.162Z,5.82
2023-03-31T02:19:18.822Z,5.75
2023-03-31T02:21:51.252Z,5.60
2023-03-31T02:24:20.508Z,6.55
2023-03-31T02:26:53.929Z,9.20
2023-03-31T02:29:21.817Z,6.00
2023-03-31T02:32:01.533Z,5.10
2023-03-31T02:34:29.384Z,5.55
2023-03-31T02:36:56.934Z,4.93
2023-03-31T02:39:28.315Z,6.07
2023-03-31T02:41:56.637Z,6.20
2023-03-31T02:44:24.514Z,8.25
2023-03-31T02:46:53.022Z,6.87
2023-03-31T02:49:21.413Z,4.00
2023-03-31T02:52:05.343Z,8.75
2023-03-31T02:54:56.288Z,6.75
2023-03-31T02:57:56.311Z,7.57
2023-03-31T03:00:40.726Z,4.85
2023-03-31T03:03:36.359Z,5.20
2023-03-31T03:06:14.159Z,5.15
2023-03-31T03:09:29.991Z,6.30
2023-03-31T03:12:33.185Z,8.50
2023-03-31T03:15:07.704Z,6.20
2023-03-31T03:17:39.606Z,7.80
2023-03-31T03:20:09.237Z,5.60
2023-03-31T03:22:38.122Z,7.20
2023-03-31T03:25:07.243Z,7.05
2023-03-31T03:27:35.967Z,7.15
2023-03-31T03:30:05.603Z,6.32
2023-03-31T03:32:33.816Z,7.05
2023-03-31T03:35:02.447Z,10.23
2023-03-31T03:37:30.389Z,5.90
2023-03-31T03:39:57.841Z,8.52
2023-03-31T03:42:25.388Z,6.15
2023-03-31T03:44:53.154Z,7.62
2023-03-31T03:47:20.651Z,9.48
2023-03-31T03:49:49.123Z,6.50
2023-03-31T03:52:17.142Z,6.05
2023-03-31T03:57:12.166Z,7.53
2023-03-31T03:59:39.848Z,5.95
2023-03-31T04:02:07.242Z,10.30
2023-03-31T04:04:34.990Z,12.55
2023-03-31T04:07:02.366Z,12.57
2023-03-31T04:09:29.807Z,17.98
2023-03-31T04:11:57.642Z,19.40
2023-03-31T04:14:25.969Z,17.77
2023-03-31T04:16:56.324Z,18.05
2023-03-31T04:19:25.961Z,13.65
2023-03-31T04:21:58.885Z,11.55
2023-03-31T04:24:30.869Z,12.63
2023-03-31T04:26:59.906Z,15.80
2023-03-31T04:29:27.688Z,14.18
2023-03-31T04:31:58.824Z,15.10
2023-03-31T04:34:35.184Z,12.52
2023-03-31T04:37:04.270Z,13.52
2023-03-31T04:39:31.784Z,11.68
2023-03-31T04:42:00.630Z,11.40
2023-03-31T04:44:28.833Z,9.85
2023-03-31T04:46:56.773Z,13.82
2023-03-31T04:49:24.293Z,10.10
2023-03-31T04:51:51.914Z,7.57
2023-03-31T04:54:19.289Z,9.27
2023-03-31T04:56:46.686Z,8.90
2023-03-31T04:59:14.435Z,7.55
2023-03-31T05:01:45.074Z,9.07
2023-03-31T05:04:12.682Z,7.28
2023-03-31T05:06:40.430Z,9.70
2023-03-31T05:09:09.695Z,9.18
2023-03-31T05:11:38.237Z,9.20
2023-03-31T05:14:06.117Z,7.93
2023-03-31T05:16:33.845Z,13.07
2023-03-31T05:19:01.344Z,17.98
2023-03-31T05:21:30.678Z,13.70
2023-03-31T05:23:58.107Z,13.43
2023-03-31T05:26:25.895Z,12.15
2023-03-31T05:28:54.154Z,13.75
2023-03-31T05:31:22.488Z,13.25
2023-03-31T05:33:50.042Z,10.60
2023-03-31T05:36:17.906Z,12.50
2023-03-31T05:38:45.996Z,9.43
2023-03-31T05:41:13.427Z,11.25
2023-03-31T05:43:41.195Z,11.10
2023-03-31T05:46:08.963Z,9.95
2023-03-31T05:48:38.059Z,9.07
2023-03-31T05:51:06.106Z,9.20
2023-03-31T05:53:34.155Z,8.25
2023-03-31T05:56:03.512Z,7.30
2023-03-31T05:58:31.629Z,7.80
2023-03-31T06:01:10.965Z,10.93
2023-03-31T06:03:43.788Z,10.18
2023-03-31T06:08:43.665Z,6.65
2023-03-31T06:11:13.944Z,7.75
2023-03-31T06:13:41.946Z,6.62
2023-03-31T06:16:11.509Z,8.10
2023-03-31T06:18:39.731Z,6.53
2023-03-31T06:21:07.895Z,8.98
2023-03-31T06:23:35.617Z,6.18
2023-03-31T06:26:08.448Z,5.30
2023-03-31T06:28:36.495Z,7.62
2023-03-31T06:31:06.219Z,8.65
2023-03-31T06:33:34.758Z,8.85
2023-03-31T06:36:05.462Z,7.65
2023-03-31T06:38:34.840Z,7.40
2023-03-31T06:41:03.024Z,8.45
2023-03-31T06:43:30.873Z,5.82
2023-03-31T06:45:58.478Z,7.72
2023-03-31T06:48:27.126Z,6.50
2023-03-31T06:50:54.896Z,12.88
2023-03-31T06:53:22.394Z,15.38
2023-03-31T06:55:50.088Z,28.15
2023-03-31T06:58:17.538Z,14.23
2023-03-31T07:00:47.536Z,9.65
2023-03-31T07:03:18.761Z,8.57
2023-03-31T07:05:51.014Z,6.80
2023-03-31T07:08:18.834Z,7.97
2023-03-31T07:10:48.869Z,6.50
2023-03-31T07:13:17.139Z,6.50
2023-03-31T07:15:47.748Z,6.28
2023-03-31T07:18:16.172Z,6.30
2023-03-31T07:20:44.151Z,5.55
2023-03-31T07:23:11.845Z,5.55
2023-03-31T07:25:39.326Z,6.25
2023-03-31T07:28:06.867Z,5.37
2023-03-31T07:30:34.657Z,4.40
2023-03-31T07:33:02.709Z,7.95
2023-03-31T07:35:31.376Z,5.10
2023-03-31T07:37:59.388Z,7.15
2023-03-31T07:40:30.081Z,4.18
2023-03-31T07:42:57.633Z,6.93
2023-03-31T07:45:26.147Z,6.05
2023-03-31T07:47:53.723Z,5.72
2023-03-31T07:50:21.954Z,6.10
2023-03-31T07:52:50.725Z,6.07
2023-03-31T07:55:19.864Z,5.40
2023-03-31T07:57:47.771Z,6.90
2023-03-31T08:00:16.376Z,6.80
2023-03-31T08:02:44.511Z,5.47
2023-03-31T08:05:14.025Z,7.05
2023-03-31T08:07:44.895Z,14.27
2023-03-31T08:10:22.501Z,6.95
2023-03-31T08:12:49.977Z,3.90
2023-03-31T08:15:17.768Z,6.37
2023-03-31T08:17:45.620Z,8.85
2023-03-31T08:20:13.271Z,6.45
2023-03-31T08:22:41.194Z,6.18
2023-03-31T08:25:09.395Z,4.87
2023-03-31T08:27:39.394Z,3.92
2023-03-31T08:30:09.593Z,6.57
2023-03-31T08:32:37.380Z,6.35
2023-03-31T08:35:05.299Z,6.37
2023-03-31T08:37:33.300Z,5.95
2023-03-31T08:40:00.769Z,5.78
2023-03-31T08:42:50.334Z,5.75
2023-03-31T08:45:27.251Z,4.78
2023-03-31T08:47:59.704Z,3.50
2023-03-31T08:50:31.053Z,5.18
2023-03-31T08:53:09.076Z,5.22
2023-03-31T08:56:09.721Z,3.87
2023-03-31T08:58:42.939Z,5.50
2023-03-31T09:01:18.248Z,7.78
2023-03-31T09:04:17.369Z,4.18
2023-03-31T09:07:23.572Z,4.78
2023-03-31T09:10:03.377Z,6.00
2023-03-31T09:12:54.798Z,6.93
2023-03-31T09:15:28.435Z,4.35
2023-03-31T09:17:59.583Z,4.78
2023-03-31T09:20:48.821Z,3.30
2023-03-31T09:23:25.639Z,5.12
2023-03-31T09:25:53.258Z,4.85
2023-03-31T09:28:27.269Z,5.22
2023-03-31T09:30:55.489Z,4.78
2023-03-31T09:33:33.657Z,6.87
2023-03-31T09:36:02.004Z,3.80
2023-03-31T09:38:31.127Z,2.80
2023-03-31T09:40:59.433Z,3.60
2023-03-31T09:43:28.588Z,3.62
2023-03-31T09:46:09.334Z,4.62
2023-03-31T09:48:37.884Z,5.15
2023-03-31T09:51:07.588Z,4.55
2023-03-31T09:53:47.238Z,7.25
2023-03-31T09:56:34.460Z,6.78
2023-03-31T09:59:02.826Z,5.22
2023-03-31T10:01:30.580Z,3.95
2023-03-31T10:03:58.500Z,3.47
2023-03-31T10:06:26.931Z,3.75
2023-03-31T10:09:00.065Z,3.78
2023-03-31T10:11:28.121Z,3.45
2023-03-31T10:13:58.934Z,3.80
2023-03-31T10:16:29.443Z,3.95
2023-03-31T10:19:16.015Z,6.18
2023-03-31T10:21:46.047Z,2.35
2023-03-31T10:24:19.842Z,3.60
2023-03-31T10:26:53.723Z,4.80
2023-03-31T10:29:29.750Z,3.95
2023-03-31T10:32:03.701Z,3.85
2023-03-31T10:34:31.925Z,3.97
2023-03-31T10:36:59.843Z,5.10
2023-03-31T10:39:31.795Z,3.75
2023-03-31T10:44:37.879Z,4.43
2023-03-31T10:47:14.538Z,3.08
2023-03-31T10:49:43.289Z,2.60
2023-03-31T10:52:17.858Z,4.57
2023-03-31T10:54:59.278Z,2.62
2023-03-31T10:57:40.290Z,3.90
2023-03-31T11:00:19.043Z,1.52
2023-03-31T11:03:08.234Z,2.40
2023-03-31T11:06:20.387Z,5.18
2023-03-31T11:09:01.915Z,3.62
2023-03-31T11:11:56.078Z,6.75
2023-03-31T11:14:45.242Z,3.62
2023-03-31T11:17:34.175Z,4.12
2023-03-31T11:20:07.773Z,6.12
2023-03-31T11:22:42.171Z,3.53
2023-03-31T11:25:23.770Z,3.87
2023-03-31T11:28:16.323Z,4.18
2023-03-31T11:31:08.854Z,3.40
2023-03-31T11:34:04.367Z,6.35
2023-03-31T11:36:52.729Z,4.68
2023-03-31T11:39:36.990Z,6.00
2023-03-31T11:42:19.084Z,4.10
2023-03-31T11:44:53.055Z,4.87
2023-03-31T11:47:24.599Z,5.40
2023-03-31T11:49:55.736Z,6.63
2023-03-31T11:52:40.706Z,4.70
2023-03-31T11:55:18.873Z,5.15
2023-03-31T11:57:50.746Z,5.00
2023-03-31T12:00:21.759Z,4.22
2023-03-31T12:02:55.517Z,6.30
2023-03-31T12:05:24.787Z,4.30
2023-03-31T12:08:05.149Z,2.97
2023-03-31T12:10:43.265Z,7.05
2023-03-31T12:13:34.495Z,5.45
2023-03-31T12:18:38.204Z,6.10
2023-03-31T12:21:06.616Z,3.17
2023-03-31T12:23:40.718Z,4.28
2023-03-31T12:26:17.009Z,6.00
2023-03-31T12:28:45.938Z,3.53
2023-03-31T12:31:20.717Z,3.78
2023-03-31T12:34:01.110Z,4.50
2023-03-31T12:37:06.500Z,3.87
2023-03-31T12:39:45.047Z,3.55
2023-03-31T12:42:40.873Z,2.83
2023-03-31T12:45:14.656Z,5.82
2023-03-31T12:47:42.039Z,6.80
2023-03-31T12:50:34.168Z,5.30
2023-03-31T12:53:25.201Z,3.95
2023-03-31T12:55:59.939Z,4.47
2023-03-31T12:58:31.903Z,4.07
2023-03-31T13:01:07.174Z,3.70
2023-03-31T13:03:45.626Z,4.50
2023-03-31T13:06:25.924Z,3.50
2023-03-31T13:09:00.940Z,5.62
2023-03-31T13:11:39.248Z,2.87
2023-03-31T13:14:06.520Z,6.15
2023-03-31T13:16:35.028Z,3.62
2023-03-31T13:19:02.768Z,5.32
2023-03-31T13:21:30.648Z,6.05
2023-03-31T13:24:02.086Z,5.18
2023-03-31T13:26:32.613Z,3.58
2023-03-31T13:29:11.974Z,2.20
2023-03-31T13:32:01.385Z,3.42
2023-03-31T13:34:48.437Z,4.20
2023-03-31T13:37:45.059Z,6.15
2023-03-31T13:40:50.617Z,2.55
2023-03-31T13:43:33.884Z,2.65
2023-03-31T13:46:33.795Z,3.55
2023-03-31T13:49:11.165Z,4.07
2023-03-31T13:52:03.270Z,3.95
2023-03-31T13:54:49.474Z,3.62
2023-03-31T13:57:39.565Z,4.72
2023-03-31T14:00:28.767Z,4.32
2023-03-31T14:03:11.687Z,4.37
2023-03-31T14:06:01.136Z,4.28
2023-03-31T14:08:53.424Z,3.75
2023-03-31T14:11:20.933Z,7.95
2023-03-31T14:14:13.002Z,6.97
2023-03-31T14:16:50.292Z,5.70
2023-03-31T14:19:55.373Z,4.60
2023-03-31T14:22:43.857Z,8.02
2023-03-31T14:25:40.946Z,5.60
2023-03-31T14:28:34.587Z,5.95
2023-03-31T14:31:13.550Z,5.50
2023-03-31T14:33:55.431Z,5.40
2023-03-31T14:36:29.452Z,5.80
2023-03-31T14:39:03.709Z,5.85
2023-03-31T14:41:31.558Z,4.22
2023-03-31T14:44:02.278Z,2.85
2023-03-31T14:46:32.886Z,7.70
2023-03-31T14:49:07.439Z,4.55
2023-03-31T14:51:34.860Z,9.88
2023-03-31T14:54:02.985Z,5.20
2023-03-31T14:56:36.049Z,3.72
2023-03-31T14:59:04.367Z,2.40
2023-03-31T15:01:39.717Z,5.10
2023-03-31T15:04:10.560Z,2.53
2023-03-31T15:06:39.972Z,4.10
2023-03-31T15:09:08.335Z,3.08
2023-03-31T15:11:35.943Z,3.05
2023-03-31T15:14:05.616Z,2.70
2023-03-31T15:16:44.272Z,4.65
2023-03-31T15:19:19.006Z,2.25
2023-03-31T15:21:53.828Z,3.85
2023-03-31T15:24:22.283Z,5.35
2023-03-31T15:26:55.961Z,3.67
2023-03-31T15:29:34.023Z,4.87
2023-03-31T15:32:02.011Z,5.75
2023-03-31T15:34:33.345Z,4.05
2023-03-31T15:37:01.719Z,2.78
2023-03-31T15:39:32.536Z,3.25
2023-03-31T15:42:03.412Z,9.20
2023-03-31T15:44:33.970Z,5.97
2023-03-31T15:47:06.690Z,3.28
2023-03-31T15:49:34.545Z,2.92
2023-03-31T15:52:04.490Z,7.50
2023-03-31T15:54:43.096Z,3.00
2023-03-31T15:57:36.127Z,4.82
2023-03-31T16:00:07.121Z,5.87
2023-03-31T16:02:44.146Z,5.90
2023-03-31T16:05:51.397Z,3.35
2023-03-31T16:08:38.098Z,4.15
2023-03-31T16:11:11.091Z,3.75
2023-03-31T16:13:41.351Z,3.45
2023-03-31T16:16:11.257Z,3.08
2023-03-31T16:18:50.214Z,4.22
2023-03-31T16:21:26.936Z,3.40
2023-03-31T16:23:57.461Z,6.55
2023-03-31T16:26:28.130Z,2.58
2023-03-31T16:28:57.476Z,5.80
2023-03-31T16:31:34.481Z,4.53
2023-03-31T16:34:04.716Z,11.05
2023-03-31T16:36:32.574Z,9.05
2023-03-31T16:39:02.276Z,4.47
2023-03-31T16:41:30.074Z,3.45
2023-03-31T16:43:57.838Z,2.92
2023-03-31T16:46:25.872Z,5.60
2023-03-31T16:48:53.536Z,5.45
2023-03-31T16:51:21.267Z,3.72
2023-03-31T16:53:48.741Z,3.78
2023-03-31T16:56:16.283Z,5.55
2023-03-31T16:58:44.071Z,3.03
2023-03-31T17:01:11.847Z,3.12
2023-03-31T17:03:41.720Z,3.47
2023-03-31T17:06:12.151Z,3.45
2023-03-31T17:08:39.998Z,4.30
2023-03-31T17:11:10.987Z,6.50
2023-03-31T17:13:39.807Z,4.20
2023-03-31T17:18:56.125Z,8.05
2023-03-31T17:21:24.338Z,9.60
2023-03-31T17:23:51.781Z,11.85
2023-03-31T17:26:19.490Z,9.93
2023-03-31T17:28:46.927Z,11.35
2023-03-31T17:31:19.421Z,8.75
2023-03-31T17:33:47.657Z,7.05
2023-03-31T17:36:15.721Z,8.30
2023-03-31T17:38:43.197Z,11.32
2023-03-31T17:41:12.952Z,9.38
2023-03-31T17:43:44.501Z,7.47
2023-03-31T17:46:12.859Z,5.93
2023-03-31T17:48:41.970Z,6.57
2023-03-31T17:51:15.460Z,10.13
2023-03-31T17:53:45.174Z,14.10
2023-03-31T17:56:14.169Z,13.38
2023-03-31T17:58:41.780Z,13.40
2023-03-31T18:01:10.527Z,9.45
2023-03-31T18:03:38.512Z,7.25
2023-03-31T18:06:08.503Z,8.48
2023-03-31T18:08:36.238Z,7.72
2023-03-31T18:11:05.641Z,5.85
2023-03-31T18:13:34.793Z,5.87
2023-03-31T18:16:02.728Z,8.05
2023-03-31T18:18:30.557Z,8.63
2023-03-31T18:20:58.142Z,5.32
2023-03-31T18:23:25.551Z,5.53
2023-03-31T18:25:53.279Z,4.93
2023-03-31T18:28:20.982Z,6.45
2023-03-31T18:30:48.525Z,4.47
2023-03-31T18:33:16.561Z,6.47
2023-03-31T18:35:44.550Z,8.27
2023-03-31T18:38:12.135Z,5.43
2023-03-31T18:40:39.784Z,5.62
2023-03-31T18:43:08.265Z,8.43
2023-03-31T18:45:38.509Z,8.32
2023-03-31T18:48:06.252Z,5.50
2023-03-31T18:50:33.926Z,8.65
2023-03-31T18:53:01.317Z,7.90
2023-03-31T18:55:29.662Z,6.85
2023-03-31T18:57:58.038Z,8.30
2023-03-31T19:00:25.503Z,7.15
2023-03-31T19:02:53.679Z,4.35
2023-03-31T19:05:21.461Z,7.87
2023-03-31T19:07:48.817Z,3.60
2023-03-31T19:10:16.769Z,3.92
2023-03-31T19:12:48.594Z,5.65
2023-03-31T19:15:16.680Z,3.05
2023-03-31T19:17:44.124Z,5.37
2023-03-31T19:20:16.503Z,4.57
2023-03-31T19:22:49.368Z,3.78
2023-03-31T19:25:19.563Z,3.53
2023-03-31T19:27:47.304Z,4.60
2023-03-31T19:30:24.335Z,3.62
2023-03-31T19:32:52.128Z,3.70
2023-03-31T19:35:19.858Z,3.58
2023-03-31T19:37:48.741Z,2.97
2023-03-31T19:40:16.518Z,2.25
2023-03-31T19:42:44.559Z,2.00
2023-03-31T19:45:12.245Z,5.50
2023-03-31T19:47:40.144Z,1.87
2023-03-31T19:50:08.579Z,2.83
2023-03-31T19:52:36.558Z,6.07
2023-03-31T19:55:04.975Z,2.62
2023-03-31T19:57:32.634Z,1.40
2023-03-31T20:00:01.315Z,1.40
2023-03-31T20:02:32.870Z,1.58
2023-03-31T20:05:01.777Z,3.08
2023-03-31T20:07:30.087Z,0.80
2023-03-31T20:09:57.642Z,1.62
2023-03-31T20:12:25.323Z,1.92
2023-03-31T20:14:52.797Z,1.95
2023-03-31T20:17:20.697Z,2.33
2023-03-31T20:19:48.349Z,1.30
2023-03-31T20:22:15.955Z,0.73
2023-03-31T20:24:43.456Z,2.00
2023-03-31T20:27:11.238Z,3.30
2023-03-31T20:29:38.669Z,0.75
2023-03-31T20:32:06.232Z,1.02
2023-03-31T20:34:34.086Z,3.20
2023-03-31T20:37:03.297Z,0.90
2023-03-31T20:39:31.114Z,1.98
2023-03-31T20:41:58.759Z,1.10
2023-03-31T20:44:26.497Z,1.27
2023-03-31T20:46:55.501Z,5.37
2023-03-31T20:49:23.303Z,2.05
2023-03-31T20:51:51.013Z,3.90
2023-03-31T20:54:18.528Z,1.67
2023-03-31T20:56:47.133Z,2.25
2023-03-31T20:59:15.193Z,2.10
2023-03-31T21:01:42.982Z,1.08
2023-03-31T21:04:11.908Z,2.00
2023-03-31T21:06:42.309Z,2.78
2023-03-31T21:09:11.722Z,1.83
2023-03-31T21:11:40.773Z,3.80
2023-03-31T21:14:11.599Z,4.57
2023-03-31T21:16:40.266Z,2.20
2023-03-31T21:19:07.681Z,2.58
2023-03-31T21:21:36.088Z,6.32
2023-03-31T21:24:04.029Z,2.62
2023-03-31T21:26:31.415Z,2.25
2023-03-31T21:28:58.833Z,2.92
2023-03-31T21:31:27.232Z,1.95
2023-03-31T21:33:57.528Z,4.57
2023-03-31T21:36:25.542Z,3.10
2023-03-31T21:38:54.083Z,4.22
2023-03-31T21:41:24.131Z,3.33
2023-03-31T21:43:52.164Z,4.32
2023-03-31T21:46:23.463Z,2.30
2023-03-31T21:48:50.944Z,4.30
2023-03-31T21:51:20.003Z,4.90
2023-03-31T21:53:48.495Z,3.47
2023-03-31T21:56:16.366Z,4.85
2023-03-31T21:58:43.803Z,4.22
2023-03-31T22:01:11.727Z,3.42
2023-03-31T22:03:42.139Z,4.78
2023-03-31T22:06:09.851Z,5.00
2023-03-31T22:08:38.912Z,5.28
2023-03-31T22:11:08.645Z,2.97
2023-03-31T22:13:36.615Z,2.95
2023-03-31T22:16:05.441Z,1.37
2023-03-31T22:18:33.213Z,3.53
2023-03-31T22:21:02.483Z,4.12
2023-03-31T22:23:29.934Z,7.05
2023-03-31T22:25:57.672Z,2.78
2023-03-31T22:28:25.022Z,2.20
2023-03-31T22:30:52.396Z,3.45
2023-03-31T22:33:20.046Z,3.12
2023-03-31T22:35:49.250Z,2.53
2023-03-31T22:38:16.698Z,3.45
2023-03-31T22:40:44.340Z,4.05
2023-03-31T22:43:11.696Z,3.35
2023-03-31T22:45:39.186Z,3.17
2023-03-31T22:48:08.603Z,4.18
2023-03-31T22:50:36.158Z,3.37
2023-03-31T22:53:03.654Z,3.67
2023-03-31T22:55:31.577Z,4.93
2023-03-31T22:57:59.082Z,5.05
2023-03-31T23:00:27.177Z,3.22
2023-03-31T23:02:54.906Z,6.40
2023-03-31T23:05:24.279Z,4.60
2023-03-31T23:07:51.875Z,4.00
2023-03-31T23:10:19.658Z,3.20
2023-03-31T23:12:47.363Z,2.12
2023-03-31T23:15:14.911Z,3.25
2023-03-31T23:17:42.610Z,2.60
2023-03-31T23:20:10.602Z,3.60
2023-03-31T23:22:38.000Z,4.85
2023-03-31T23:25:06.410Z,3.47
2023-03-31T23:27:33.906Z,2.65
2023-03-31T23:30:01.426Z,2.50
2023-03-31T23:32:29.113Z,3.35
2023-03-31T23:34:56.485Z,2.67
2023-03-31T23:37:23.920Z,3.00
2023-03-31T23:39:52.060Z,1.75
2023-03-31T23:42:20.772Z,2.72
2023-03-31T23:44:48.426Z,2.33
2023-03-31T23:47:16.259Z,5.65
2023-03-31T23:49:43.943Z,2.22
2023-03-31T23:52:11.397Z,5.20
2023-03-31T23:54:39.031Z,3.08
2023-03-31T23:57:06.456Z,3.30
2023-03-31T23:59:33.979Z,2.10
